sensor_id;sensor_type;location;lat;lon;timestamp;P1;durP1;ratioP1;P2;durP2;ratioP2
72354;SDS011;60314;55.040;73.076;2022-07-23T00:00:21;6.75;;;2.92;;
72354;SDS011;60314;55.040;73.076;2022-07-23T00:02:52;9.00;;;3.10;;
72354;SDS011;60314;55.040;73.076;2022-07-23T00:07:51;6.05;;;2.80;;
72354;SDS011;60314;55.040;73.076;2022-07-23T00:10:18;8.43;;;3.10;;
72354;SDS011;60314;55.040;73.076;2022-07-23T00:12:46;5.90;;;2.72;;
72354;SDS011;60314;55.040;73.076;2022-07-23T00:15:14;6.97;;;2.95;;
72354;SDS011;60314;55.040;73.076;2022-07-23T00:17:42;6.63;;;3.00;;
72354;SDS011;60314;55.040;73.076;2022-07-23T00:20:15;6.75;;;3.17;;
72354;SDS011;60314;55.040;73.076;2022-07-23T00:22:52;6.30;;;2.90;;
72354;SDS011;60314;55.040;73.076;2022-07-23T00:25:26;8.15;;;3.13;;
72354;SDS011;60314;55.040;73.076;2022-07-23T00:28:00;7.90;;;2.88;;
72354;SDS011;60314;55.040;73.076;2022-07-23T00:30:29;7.78;;;3.00;;
72354;SDS011;60314;55.040;73.076;2022-07-23T00:32:58;7.88;;;3.33;;
72354;SDS011;60314;55.040;73.076;2022-07-23T00:35:27;7.57;;;2.70;;
72354;SDS011;60314;55.040;73.076;2022-07-23T00:37:56;4.72;;;2.80;;
72354;SDS011;60314;55.040;73.076;2022-07-23T00:40:24;6.60;;;3.10;;
72354;SDS011;60314;55.040;73.076;2022-07-23T00:42:52;6.13;;;2.97;;
72354;SDS011;60314;55.040;73.076;2022-07-23T00:45:19;6.43;;;3.08;;
72354;SDS011;60314;55.040;73.076;2022-07-23T00:47:58;4.85;;;3.10;;
72354;SDS011;60314;55.040;73.076;2022-07-23T00:50:25;7.78;;;2.97;;
72354;SDS011;60314;55.040;73.076;2022-07-23T00:52:58;10.20;;;3.40;;
72354;SDS011;60314;55.040;73.076;2022-07-23T00:55:35;7.15;;;3.13;;
72354;SDS011;60314;55.040;73.076;2022-07-23T00:58:02;7.93;;;3.40;;
72354;SDS011;60314;55.040;73.076;2022-07-23T01:00:29;5.47;;;3.55;;
72354;SDS011;60314;55.040;73.076;2022-07-23T01:02:56;7.25;;;3.42;;
72354;SDS011;60314;55.040;73.076;2022-07-23T01:05:22;5.88;;;3.10;;
72354;SDS011;60314;55.040;73.076;2022-07-23T01:07:50;6.72;;;3.42;;
72354;SDS011;60314;55.040;73.076;2022-07-23T01:10:18;8.70;;;3.33;;
72354;SDS011;60314;55.040;73.076;2022-07-23T01:13:03;6.05;;;3.38;;
72354;SDS011;60314;55.040;73.076;2022-07-23T01:15:37;4.90;;;2.80;;
72354;SDS011;60314;55.040;73.076;2022-07-23T01:18:05;5.63;;;2.88;;
72354;SDS011;60314;55.040;73.076;2022-07-23T01:20:34;5.63;;;2.90;;
72354;SDS011;60314;55.040;73.076;2022-07-23T01:23:01;7.03;;;3.38;;
72354;SDS011;60314;55.040;73.076;2022-07-23T01:25:27;6.60;;;2.70;;
72354;SDS011;60314;55.040;73.076;2022-07-23T01:27:58;6.78;;;3.25;;
72354;SDS011;60314;55.040;73.076;2022-07-23T01:30:24;6.03;;;3.30;;
72354;SDS011;60314;55.040;73.076;2022-07-23T01:32:53;5.53;;;3.40;;
72354;SDS011;60314;55.040;73.076;2022-07-23T01:35:24;10.38;;;3.65;;
72354;SDS011;60314;55.040;73.076;2022-07-23T01:37:53;6.63;;;3.10;;
72354;SDS011;60314;55.040;73.076;2022-07-23T01:40:21;8.73;;;3.50;;
72354;SDS011;60314;55.040;73.076;2022-07-23T01:42:48;6.10;;;3.08;;
72354;SDS011;60314;55.040;73.076;2022-07-23T01:45:16;5.43;;;3.25;;
72354;SDS011;60314;55.040;73.076;2022-07-23T01:47:47;6.13;;;3.28;;
72354;SDS011;60314;55.040;73.076;2022-07-23T01:50:14;5.93;;;2.78;;
72354;SDS011;60314;55.040;73.076;2022-07-23T01:52:52;6.50;;;3.00;;
72354;SDS011;60314;55.040;73.076;2022-07-23T01:55:19;4.97;;;2.97;;
72354;SDS011;60314;55.040;73.076;2022-07-23T01:57:48;4.85;;;3.03;;
72354;SDS011;60314;55.040;73.076;2022-07-23T02:00:19;6.47;;;3.17;;
72354;SDS011;60314;55.040;73.076;2022-07-23T02:02:48;7.72;;;2.90;;
72354;SDS011;60314;55.040;73.076;2022-07-23T02:05:14;6.65;;;3.20;;
72354;SDS011;60314;55.040;73.076;2022-07-23T02:07:41;8.07;;;3.08;;
72354;SDS011;60314;55.040;73.076;2022-07-23T02:10:08;6.13;;;2.90;;
72354;SDS011;60314;55.040;73.076;2022-07-23T02:12:37;6.60;;;3.35;;
72354;SDS011;60314;55.040;73.076;2022-07-23T02:15:04;5.30;;;2.90;;
72354;SDS011;60314;55.040;73.076;2022-07-23T02:17:31;5.93;;;2.83;;
72354;SDS011;60314;55.040;73.076;2022-07-23T02:20:01;6.28;;;3.08;;
72354;SDS011;60314;55.040;73.076;2022-07-23T02:22:27;7.55;;;3.20;;
72354;SDS011;60314;55.040;73.076;2022-07-23T02:24:54;12.07;;;3.10;;
72354;SDS011;60314;55.040;73.076;2022-07-23T02:27:21;5.28;;;2.80;;
72354;SDS011;60314;55.040;73.076;2022-07-23T02:29:48;7.10;;;3.25;;
72354;SDS011;60314;55.040;73.076;2022-07-23T02:32:15;9.30;;;3.22;;
72354;SDS011;60314;55.040;73.076;2022-07-23T02:34:43;5.68;;;2.90;;
72354;SDS011;60314;55.040;73.076;2022-07-23T02:37:10;8.60;;;2.95;;
72354;SDS011;60314;55.040;73.076;2022-07-23T02:39:36;8.32;;;3.58;;
72354;SDS011;60314;55.040;73.076;2022-07-23T02:42:03;8.95;;;3.70;;
72354;SDS011;60314;55.040;73.076;2022-07-23T02:44:32;5.80;;;3.20;;
72354;SDS011;60314;55.040;73.076;2022-07-23T02:46:59;7.70;;;3.28;;
72354;SDS011;60314;55.040;73.076;2022-07-23T02:49:26;8.02;;;3.22;;
72354;SDS011;60314;55.040;73.076;2022-07-23T02:51:52;7.25;;;3.50;;
72354;SDS011;60314;55.040;73.076;2022-07-23T02:54:19;5.32;;;2.80;;
72354;SDS011;60314;55.040;73.076;2022-07-23T02:56:46;6.05;;;2.90;;
72354;SDS011;60314;55.040;73.076;2022-07-23T02:59:22;10.35;;;3.00;;
72354;SDS011;60314;55.040;73.076;2022-07-23T03:01:49;6.35;;;3.10;;
72354;SDS011;60314;55.040;73.076;2022-07-23T03:04:16;5.47;;;3.13;;
72354;SDS011;60314;55.040;73.076;2022-07-23T03:06:43;7.07;;;3.15;;
72354;SDS011;60314;55.040;73.076;2022-07-23T03:09:09;5.40;;;2.92;;
72354;SDS011;60314;55.040;73.076;2022-07-23T03:11:38;5.90;;;3.05;;
72354;SDS011;60314;55.040;73.076;2022-07-23T03:14:05;8.20;;;2.90;;
72354;SDS011;60314;55.040;73.076;2022-07-23T03:16:35;9.13;;;3.38;;
72354;SDS011;60314;55.040;73.076;2022-07-23T03:19:02;5.47;;;3.15;;
72354;SDS011;60314;55.040;73.076;2022-07-23T03:21:28;7.63;;;3.13;;
72354;SDS011;60314;55.040;73.076;2022-07-23T03:23:55;5.70;;;3.03;;
72354;SDS011;60314;55.040;73.076;2022-07-23T03:26:21;6.95;;;2.90;;
72354;SDS011;60314;55.040;73.076;2022-07-23T03:28:52;7.85;;;2.72;;
72354;SDS011;60314;55.040;73.076;2022-07-23T03:31:29;6.97;;;3.17;;
72354;SDS011;60314;55.040;73.076;2022-07-23T03:33:59;6.15;;;3.13;;
72354;SDS011;60314;55.040;73.076;2022-07-23T03:36:26;6.68;;;2.92;;
72354;SDS011;60314;55.040;73.076;2022-07-23T03:38:55;9.48;;;3.20;;
72354;SDS011;60314;55.040;73.076;2022-07-23T03:41:21;8.20;;;3.40;;
72354;SDS011;60314;55.040;73.076;2022-07-23T03:43:48;6.50;;;3.20;;
72354;SDS011;60314;55.040;73.076;2022-07-23T03:46:19;5.72;;;3.10;;
72354;SDS011;60314;55.040;73.076;2022-07-23T03:48:51;6.00;;;3.08;;
72354;SDS011;60314;55.040;73.076;2022-07-23T03:51:18;6.05;;;3.20;;
72354;SDS011;60314;55.040;73.076;2022-07-23T03:53:44;6.70;;;3.60;;
72354;SDS011;60314;55.040;73.076;2022-07-23T03:56:11;5.63;;;3.20;;
72354;SDS011;60314;55.040;73.076;2022-07-23T03:58:37;6.65;;;3.42;;
72354;SDS011;60314;55.040;73.076;2022-07-23T04:01:04;5.72;;;3.30;;
72354;SDS011;60314;55.040;73.076;2022-07-23T04:03:31;6.53;;;3.47;;
72354;SDS011;60314;55.040;73.076;2022-07-23T04:05:58;5.70;;;3.08;;
72354;SDS011;60314;55.040;73.076;2022-07-23T04:08:29;7.13;;;3.43;;
72354;SDS011;60314;55.040;73.076;2022-07-23T04:10:58;8.77;;;3.35;;
72354;SDS011;60314;55.040;73.076;2022-07-23T04:13:35;7.47;;;3.58;;
72354;SDS011;60314;55.040;73.076;2022-07-23T04:16:03;7.10;;;3.10;;
72354;SDS011;60314;55.040;73.076;2022-07-23T04:18:30;6.63;;;3.03;;
72354;SDS011;60314;55.040;73.076;2022-07-23T04:21:07;6.35;;;2.80;;
72354;SDS011;60314;55.040;73.076;2022-07-23T04:23:35;5.82;;;2.92;;
72354;SDS011;60314;55.040;73.076;2022-07-23T04:26:01;6.65;;;3.17;;
72354;SDS011;60314;55.040;73.076;2022-07-23T04:28:41;5.43;;;3.42;;
72354;SDS011;60314;55.040;73.076;2022-07-23T04:31:08;6.93;;;2.90;;
72354;SDS011;60314;55.040;73.076;2022-07-23T04:33:36;5.40;;;3.53;;
72354;SDS011;60314;55.040;73.076;2022-07-23T04:36:06;5.20;;;2.72;;
72354;SDS011;60314;55.040;73.076;2022-07-23T04:38:33;6.18;;;3.25;;
72354;SDS011;60314;55.040;73.076;2022-07-23T04:41:04;6.32;;;3.35;;
72354;SDS011;60314;55.040;73.076;2022-07-23T04:43:31;6.18;;;3.15;;
72354;SDS011;60314;55.040;73.076;2022-07-23T04:45:57;9.35;;;3.30;;
72354;SDS011;60314;55.040;73.076;2022-07-23T04:48:27;7.80;;;3.15;;
72354;SDS011;60314;55.040;73.076;2022-07-23T04:51:02;4.32;;;2.58;;
72354;SDS011;60314;55.040;73.076;2022-07-23T04:53:29;4.63;;;2.50;;
72354;SDS011;60314;55.040;73.076;2022-07-23T04:55:59;4.72;;;2.90;;
72354;SDS011;60314;55.040;73.076;2022-07-23T04:58:26;5.65;;;2.90;;
72354;SDS011;60314;55.040;73.076;2022-07-23T05:00:53;5.53;;;3.28;;
72354;SDS011;60314;55.040;73.076;2022-07-23T05:03:19;8.07;;;3.30;;
72354;SDS011;60314;55.040;73.076;2022-07-23T05:05:47;4.85;;;3.13;;
72354;SDS011;60314;55.040;73.076;2022-07-23T05:08:16;5.55;;;2.90;;
72354;SDS011;60314;55.040;73.076;2022-07-23T05:10:49;6.05;;;3.00;;
72354;SDS011;60314;55.040;73.076;2022-07-23T05:13:16;5.07;;;3.10;;
72354;SDS011;60314;55.040;73.076;2022-07-23T05:15:43;6.07;;;2.95;;
72354;SDS011;60314;55.040;73.076;2022-07-23T05:18:10;5.82;;;3.20;;
72354;SDS011;60314;55.040;73.076;2022-07-23T05:20:38;5.07;;;2.80;;
72354;SDS011;60314;55.040;73.076;2022-07-23T05:23:05;5.00;;;2.90;;
72354;SDS011;60314;55.040;73.076;2022-07-23T05:25:33;4.70;;;2.88;;
72354;SDS011;60314;55.040;73.076;2022-07-23T05:28:01;4.80;;;2.60;;
72354;SDS011;60314;55.040;73.076;2022-07-23T05:30:33;4.95;;;3.05;;
72354;SDS011;60314;55.040;73.076;2022-07-23T05:33:02;8.68;;;3.42;;
72354;SDS011;60314;55.040;73.076;2022-07-23T05:35:29;6.05;;;3.15;;
72354;SDS011;60314;55.040;73.076;2022-07-23T05:38:10;7.05;;;3.05;;
72354;SDS011;60314;55.040;73.076;2022-07-23T05:40:47;6.72;;;3.40;;
72354;SDS011;60314;55.040;73.076;2022-07-23T05:43:13;6.15;;;3.15;;
72354;SDS011;60314;55.040;73.076;2022-07-23T05:45:46;7.57;;;3.60;;
72354;SDS011;60314;55.040;73.076;2022-07-23T05:48:12;5.63;;;2.67;;
72354;SDS011;60314;55.040;73.076;2022-07-23T05:50:50;4.88;;;3.20;;
72354;SDS011;60314;55.040;73.076;2022-07-23T05:53:28;6.90;;;3.08;;
72354;SDS011;60314;55.040;73.076;2022-07-23T05:56:12;4.95;;;2.60;;
72354;SDS011;60314;55.040;73.076;2022-07-23T05:58:39;6.88;;;3.10;;
72354;SDS011;60314;55.040;73.076;2022-07-23T06:01:09;8.98;;;3.40;;
72354;SDS011;60314;55.040;73.076;2022-07-23T06:03:50;9.70;;;3.45;;
72354;SDS011;60314;55.040;73.076;2022-07-23T06:06:17;5.95;;;3.55;;
72354;SDS011;60314;55.040;73.076;2022-07-23T06:08:43;5.68;;;2.95;;
72354;SDS011;60314;55.040;73.076;2022-07-23T06:11:11;8.30;;;3.50;;
72354;SDS011;60314;55.040;73.076;2022-07-23T06:13:37;6.88;;;3.33;;
72354;SDS011;60314;55.040;73.076;2022-07-23T06:16:04;5.32;;;3.25;;
72354;SDS011;60314;55.040;73.076;2022-07-23T06:21:04;8.98;;;3.15;;
72354;SDS011;60314;55.040;73.076;2022-07-23T06:23:37;5.57;;;3.10;;
72354;SDS011;60314;55.040;73.076;2022-07-23T06:26:04;7.30;;;3.47;;
72354;SDS011;60314;55.040;73.076;2022-07-23T06:28:30;6.18;;;3.00;;
72354;SDS011;60314;55.040;73.076;2022-07-23T06:30:57;4.63;;;2.90;;
72354;SDS011;60314;55.040;73.076;2022-07-23T06:33:24;5.03;;;2.95;;
72354;SDS011;60314;55.040;73.076;2022-07-23T06:35:50;6.20;;;2.90;;
72354;SDS011;60314;55.040;73.076;2022-07-23T06:38:17;4.82;;;2.88;;
72354;SDS011;60314;55.040;73.076;2022-07-23T06:40:43;6.50;;;3.58;;
72354;SDS011;60314;55.040;73.076;2022-07-23T06:43:11;5.38;;;2.70;;
72354;SDS011;60314;55.040;73.076;2022-07-23T06:45:38;5.85;;;3.28;;
72354;SDS011;60314;55.040;73.076;2022-07-23T06:48:04;6.57;;;2.83;;
72354;SDS011;60314;55.040;73.076;2022-07-23T06:50:31;5.35;;;3.17;;
72354;SDS011;60314;55.040;73.076;2022-07-23T06:52:58;9.20;;;3.20;;
72354;SDS011;60314;55.040;73.076;2022-07-23T06:55:25;5.97;;;3.05;;
72354;SDS011;60314;55.040;73.076;2022-07-23T06:57:52;4.97;;;2.75;;
72354;SDS011;60314;55.040;73.076;2022-07-23T07:00:18;6.53;;;2.90;;
72354;SDS011;60314;55.040;73.076;2022-07-23T07:02:45;5.47;;;3.03;;
72354;SDS011;60314;55.040;73.076;2022-07-23T07:05:11;4.85;;;2.88;;
72354;SDS011;60314;55.040;73.076;2022-07-23T07:07:38;5.82;;;2.90;;
72354;SDS011;60314;55.040;73.076;2022-07-23T07:10:05;5.30;;;2.63;;
72354;SDS011;60314;55.040;73.076;2022-07-23T07:12:32;6.75;;;3.20;;
72354;SDS011;60314;55.040;73.076;2022-07-23T07:14:58;5.45;;;2.83;;
72354;SDS011;60314;55.040;73.076;2022-07-23T07:17:25;5.05;;;2.50;;
72354;SDS011;60314;55.040;73.076;2022-07-23T07:19:52;6.88;;;3.35;;
72354;SDS011;60314;55.040;73.076;2022-07-23T07:22:18;6.47;;;3.40;;
72354;SDS011;60314;55.040;73.076;2022-07-23T07:24:45;5.10;;;3.17;;
72354;SDS011;60314;55.040;73.076;2022-07-23T07:27:11;5.25;;;3.35;;
72354;SDS011;60314;55.040;73.076;2022-07-23T07:29:38;7.13;;;3.38;;
72354;SDS011;60314;55.040;73.076;2022-07-23T07:32:05;6.82;;;3.47;;
72354;SDS011;60314;55.040;73.076;2022-07-23T07:34:31;6.10;;;3.25;;
72354;SDS011;60314;55.040;73.076;2022-07-23T07:36:58;5.18;;;3.10;;
72354;SDS011;60314;55.040;73.076;2022-07-23T07:39:25;4.97;;;2.90;;
72354;SDS011;60314;55.040;73.076;2022-07-23T07:41:51;7.20;;;3.83;;
72354;SDS011;60314;55.040;73.076;2022-07-23T07:44:18;5.75;;;2.78;;
72354;SDS011;60314;55.040;73.076;2022-07-23T07:46:45;5.50;;;2.97;;
72354;SDS011;60314;55.040;73.076;2022-07-23T07:49:11;9.57;;;3.60;;
72354;SDS011;60314;55.040;73.076;2022-07-23T07:51:38;7.50;;;3.03;;
72354;SDS011;60314;55.040;73.076;2022-07-23T07:54:04;4.85;;;3.15;;
72354;SDS011;60314;55.040;73.076;2022-07-23T07:56:31;6.10;;;3.22;;
72354;SDS011;60314;55.040;73.076;2022-07-23T07:58:58;7.18;;;3.15;;
72354;SDS011;60314;55.040;73.076;2022-07-23T08:01:24;6.40;;;2.85;;
72354;SDS011;60314;55.040;73.076;2022-07-23T08:03:51;5.80;;;2.85;;
72354;SDS011;60314;55.040;73.076;2022-07-23T08:06:18;7.18;;;3.35;;
72354;SDS011;60314;55.040;73.076;2022-07-23T08:08:44;7.40;;;3.20;;
72354;SDS011;60314;55.040;73.076;2022-07-23T08:11:11;5.60;;;3.08;;
72354;SDS011;60314;55.040;73.076;2022-07-23T08:13:38;6.13;;;3.03;;
72354;SDS011;60314;55.040;73.076;2022-07-23T08:16:05;6.78;;;3.05;;
72354;SDS011;60314;55.040;73.076;2022-07-23T08:18:32;5.82;;;3.10;;
72354;SDS011;60314;55.040;73.076;2022-07-23T08:20:58;5.88;;;3.05;;
72354;SDS011;60314;55.040;73.076;2022-07-23T08:23:25;6.30;;;3.22;;
72354;SDS011;60314;55.040;73.076;2022-07-23T08:25:53;4.57;;;3.05;;
72354;SDS011;60314;55.040;73.076;2022-07-23T08:28:19;4.38;;;2.90;;
72354;SDS011;60314;55.040;73.076;2022-07-23T08:30:46;5.43;;;2.75;;
72354;SDS011;60314;55.040;73.076;2022-07-23T08:33:23;5.18;;;2.95;;
72354;SDS011;60314;55.040;73.076;2022-07-23T08:35:50;6.57;;;2.70;;
72354;SDS011;60314;55.040;73.076;2022-07-23T08:38:27;5.28;;;3.00;;
72354;SDS011;60314;55.040;73.076;2022-07-23T08:40:55;10.57;;;2.85;;
72354;SDS011;60314;55.040;73.076;2022-07-23T08:43:24;5.45;;;2.78;;
72354;SDS011;60314;55.040;73.076;2022-07-23T08:45:53;4.55;;;2.72;;
72354;SDS011;60314;55.040;73.076;2022-07-23T08:48:23;4.85;;;2.60;;
72354;SDS011;60314;55.040;73.076;2022-07-23T08:50:56;4.88;;;3.22;;
72354;SDS011;60314;55.040;73.076;2022-07-23T08:53:25;8.85;;;3.17;;
72354;SDS011;60314;55.040;73.076;2022-07-23T08:55:54;4.32;;;2.90;;
72354;SDS011;60314;55.040;73.076;2022-07-23T08:58:23;4.47;;;2.88;;
72354;SDS011;60314;55.040;73.076;2022-07-23T09:00:50;5.55;;;2.92;;
72354;SDS011;60314;55.040;73.076;2022-07-23T09:03:18;6.03;;;3.20;;
72354;SDS011;60314;55.040;73.076;2022-07-23T09:05:50;7.95;;;3.25;;
72354;SDS011;60314;55.040;73.076;2022-07-23T09:11:16;4.30;;;2.47;;
72354;SDS011;60314;55.040;73.076;2022-07-23T09:13:47;9.55;;;2.70;;
72354;SDS011;60314;55.040;73.076;2022-07-23T09:16:24;5.75;;;2.28;;
72354;SDS011;60314;55.040;73.076;2022-07-23T09:18:56;8.82;;;2.65;;
72354;SDS011;60314;55.040;73.076;2022-07-23T09:21:33;4.72;;;2.65;;
72354;SDS011;60314;55.040;73.076;2022-07-23T09:24:11;5.32;;;2.88;;
72354;SDS011;60314;55.040;73.076;2022-07-23T09:26:44;6.50;;;2.20;;
72354;SDS011;60314;55.040;73.076;2022-07-23T09:31:50;4.63;;;2.90;;
72354;SDS011;60314;55.040;73.076;2022-07-23T09:34:28;5.10;;;3.08;;
72354;SDS011;60314;55.040;73.076;2022-07-23T09:37:19;6.00;;;2.47;;
72354;SDS011;60314;55.040;73.076;2022-07-23T09:39:46;3.75;;;2.35;;
72354;SDS011;60314;55.040;73.076;2022-07-23T09:42:18;4.55;;;2.38;;
72354;SDS011;60314;55.040;73.076;2022-07-23T09:44:52;4.95;;;2.72;;
72354;SDS011;60314;55.040;73.076;2022-07-23T09:47:20;5.18;;;2.63;;
72354;SDS011;60314;55.040;73.076;2022-07-23T09:52:32;4.93;;;2.20;;
72354;SDS011;60314;55.040;73.076;2022-07-23T09:55:05;5.80;;;2.50;;
72354;SDS011;60314;55.040;73.076;2022-07-23T09:57:32;5.95;;;2.70;;
72354;SDS011;60314;55.040;73.076;2022-07-23T10:00:04;3.95;;;2.55;;
72354;SDS011;60314;55.040;73.076;2022-07-23T10:02:32;6.55;;;3.00;;
72354;SDS011;60314;55.040;73.076;2022-07-23T10:05:27;4.88;;;2.67;;
72354;SDS011;60314;55.040;73.076;2022-07-23T10:08:13;4.50;;;2.83;;
72354;SDS011;60314;55.040;73.076;2022-07-23T10:11:02;4.28;;;2.40;;
72354;SDS011;60314;55.040;73.076;2022-07-23T10:13:54;4.38;;;2.33;;
72354;SDS011;60314;55.040;73.076;2022-07-23T10:16:40;5.80;;;2.65;;
72354;SDS011;60314;55.040;73.076;2022-07-23T10:19:07;4.05;;;2.30;;
72354;SDS011;60314;55.040;73.076;2022-07-23T10:21:38;6.20;;;2.60;;
72354;SDS011;60314;55.040;73.076;2022-07-23T10:30:04;4.35;;;2.33;;
72354;SDS011;60314;55.040;73.076;2022-07-23T10:36:03;5.57;;;2.55;;
72354;SDS011;60314;55.040;73.076;2022-07-23T10:39:03;4.72;;;2.28;;
72354;SDS011;60314;55.040;73.076;2022-07-23T10:41:37;7.95;;;3.75;;
72354;SDS011;60314;55.040;73.076;2022-07-23T10:44:09;6.00;;;2.65;;
72354;SDS011;60314;55.040;73.076;2022-07-23T10:49:45;3.95;;;2.30;;
72354;SDS011;60314;55.040;73.076;2022-07-23T10:52:25;5.10;;;2.45;;
72354;SDS011;60314;55.040;73.076;2022-07-23T10:57:28;11.75;;;2.70;;
72354;SDS011;60314;55.040;73.076;2022-07-23T11:02:32;14.73;;;3.70;;
72354;SDS011;60314;55.040;73.076;2022-07-23T11:05:21;8.93;;;2.75;;
72354;SDS011;60314;55.040;73.076;2022-07-23T11:10:38;5.78;;;3.22;;
72354;SDS011;60314;55.040;73.076;2022-07-23T11:34:34;3.88;;;1.60;;
72354;SDS011;60314;55.040;73.076;2022-07-23T11:37:11;4.80;;;2.72;;
72354;SDS011;60314;55.040;73.076;2022-07-23T11:39:39;4.75;;;2.33;;
72354;SDS011;60314;55.040;73.076;2022-07-23T11:42:07;5.72;;;2.15;;
72354;SDS011;60314;55.040;73.076;2022-07-23T11:44:46;4.25;;;2.20;;
72354;SDS011;60314;55.040;73.076;2022-07-23T11:47:13;3.88;;;2.00;;
72354;SDS011;60314;55.040;73.076;2022-07-23T11:49:51;6.25;;;2.00;;
72354;SDS011;60314;55.040;73.076;2022-07-23T11:52:22;3.70;;;2.03;;
72354;SDS011;60314;55.040;73.076;2022-07-23T11:57:24;5.63;;;2.10;;
72354;SDS011;60314;55.040;73.076;2022-07-23T11:59:56;3.90;;;1.83;;
72354;SDS011;60314;55.040;73.076;2022-07-23T12:02:40;3.45;;;1.88;;
72354;SDS011;60314;55.040;73.076;2022-07-23T12:05:29;3.22;;;1.80;;
72354;SDS011;60314;55.040;73.076;2022-07-23T12:08:14;2.97;;;1.52;;
72354;SDS011;60314;55.040;73.076;2022-07-23T12:10:51;3.78;;;1.85;;
72354;SDS011;60314;55.040;73.076;2022-07-23T12:13:18;3.65;;;1.80;;
72354;SDS011;60314;55.040;73.076;2022-07-23T12:15:53;2.97;;;1.48;;
72354;SDS011;60314;55.040;73.076;2022-07-23T12:18:23;3.42;;;1.70;;
72354;SDS011;60314;55.040;73.076;2022-07-23T12:20:52;4.47;;;1.80;;
72354;SDS011;60314;55.040;73.076;2022-07-23T12:23:22;4.28;;;2.05;;
72354;SDS011;60314;55.040;73.076;2022-07-23T12:25:51;4.00;;;1.90;;
72354;SDS011;60314;55.040;73.076;2022-07-23T12:28:20;3.58;;;1.90;;
72354;SDS011;60314;55.040;73.076;2022-07-23T12:30:49;3.45;;;2.00;;
72354;SDS011;60314;55.040;73.076;2022-07-23T12:33:24;4.22;;;2.30;;
72354;SDS011;60314;55.040;73.076;2022-07-23T12:35:53;4.28;;;2.10;;
72354;SDS011;60314;55.040;73.076;2022-07-23T12:38:22;4.65;;;2.13;;
72354;SDS011;60314;55.040;73.076;2022-07-23T12:40:52;4.07;;;2.03;;
72354;SDS011;60314;55.040;73.076;2022-07-23T12:43:21;3.85;;;2.30;;
72354;SDS011;60314;55.040;73.076;2022-07-23T12:46:11;4.85;;;2.10;;
72354;SDS011;60314;55.040;73.076;2022-07-23T12:51:28;4.22;;;2.20;;
72354;SDS011;60314;55.040;73.076;2022-07-23T12:54:04;4.10;;;2.22;;
72354;SDS011;60314;55.040;73.076;2022-07-23T12:56:34;5.25;;;2.33;;
72354;SDS011;60314;55.040;73.076;2022-07-23T12:59:08;4.25;;;2.08;;
72354;SDS011;60314;55.040;73.076;2022-07-23T13:01:40;5.22;;;2.47;;
72354;SDS011;60314;55.040;73.076;2022-07-23T13:07:05;5.43;;;2.50;;
72354;SDS011;60314;55.040;73.076;2022-07-23T13:09:33;5.85;;;2.42;;
72354;SDS011;60314;55.040;73.076;2022-07-23T13:12:00;4.80;;;2.08;;
72354;SDS011;60314;55.040;73.076;2022-07-23T13:14:27;4.22;;;2.40;;
72354;SDS011;60314;55.040;73.076;2022-07-23T13:16:54;6.32;;;2.50;;
72354;SDS011;60314;55.040;73.076;2022-07-23T13:19:22;4.13;;;2.08;;
72354;SDS011;60314;55.040;73.076;2022-07-23T13:21:48;4.90;;;2.30;;
72354;SDS011;60314;55.040;73.076;2022-07-23T13:24:15;5.00;;;2.28;;
72354;SDS011;60314;55.040;73.076;2022-07-23T13:26:42;5.57;;;1.67;;
72354;SDS011;60314;55.040;73.076;2022-07-23T13:29:09;5.15;;;2.00;;
72354;SDS011;60314;55.040;73.076;2022-07-23T13:31:36;4.72;;;2.40;;
72354;SDS011;60314;55.040;73.076;2022-07-23T13:34:03;4.32;;;1.80;;
72354;SDS011;60314;55.040;73.076;2022-07-23T13:36:30;4.35;;;2.30;;
72354;SDS011;60314;55.040;73.076;2022-07-23T13:38:57;4.40;;;2.30;;
72354;SDS011;60314;55.040;73.076;2022-07-23T13:41:23;5.00;;;2.20;;
72354;SDS011;60314;55.040;73.076;2022-07-23T13:43:55;4.32;;;1.85;;
72354;SDS011;60314;55.040;73.076;2022-07-23T13:46:22;5.13;;;2.10;;
72354;SDS011;60314;55.040;73.076;2022-07-23T13:48:49;5.68;;;2.40;;
72354;SDS011;60314;55.040;73.076;2022-07-23T13:51:16;7.60;;;2.40;;
72354;SDS011;60314;55.040;73.076;2022-07-23T13:53:43;4.88;;;2.45;;
72354;SDS011;60314;55.040;73.076;2022-07-23T13:56:11;6.43;;;2.67;;
72354;SDS011;60314;55.040;73.076;2022-07-23T13:58:38;4.50;;;1.75;;
72354;SDS011;60314;55.040;73.076;2022-07-23T14:01:16;4.95;;;2.20;;
72354;SDS011;60314;55.040;73.076;2022-07-23T14:03:43;9.27;;;2.17;;
72354;SDS011;60314;55.040;73.076;2022-07-23T14:06:10;4.18;;;2.03;;
72354;SDS011;60314;55.040;73.076;2022-07-23T14:08:41;4.40;;;2.08;;
72354;SDS011;60314;55.040;73.076;2022-07-23T14:11:09;5.53;;;2.20;;
72354;SDS011;60314;55.040;73.076;2022-07-23T14:13:35;5.18;;;2.58;;
72354;SDS011;60314;55.040;73.076;2022-07-23T14:16:02;4.10;;;2.22;;
72354;SDS011;60314;55.040;73.076;2022-07-23T14:18:46;4.53;;;1.85;;
72354;SDS011;60314;55.040;73.076;2022-07-23T14:21:18;3.60;;;2.00;;
72354;SDS011;60314;55.040;73.076;2022-07-23T14:23:45;7.53;;;2.40;;
72354;SDS011;60314;55.040;73.076;2022-07-23T14:26:12;5.78;;;2.58;;
72354;SDS011;60314;55.040;73.076;2022-07-23T14:28:38;5.57;;;2.38;;
72354;SDS011;60314;55.040;73.076;2022-07-23T14:31:15;3.95;;;2.17;;
72354;SDS011;60314;55.040;73.076;2022-07-23T14:33:42;5.00;;;2.30;;
72354;SDS011;60314;55.040;73.076;2022-07-23T14:36:08;3.50;;;1.83;;
72354;SDS011;60314;55.040;73.076;2022-07-23T14:38:35;4.88;;;2.10;;
72354;SDS011;60314;55.040;73.076;2022-07-23T14:41:02;4.15;;;2.17;;
72354;SDS011;60314;55.040;73.076;2022-07-23T14:43:42;7.10;;;2.25;;
72354;SDS011;60314;55.040;73.076;2022-07-23T14:46:14;6.13;;;2.20;;
72354;SDS011;60314;55.040;73.076;2022-07-23T14:51:17;5.82;;;2.08;;
72354;SDS011;60314;55.040;73.076;2022-07-23T14:53:44;4.60;;;1.95;;
72354;SDS011;60314;55.040;73.076;2022-07-23T14:56:10;6.13;;;2.42;;
72354;SDS011;60314;55.040;73.076;2022-07-23T14:58:39;4.70;;;2.13;;
72354;SDS011;60314;55.040;73.076;2022-07-23T15:01:06;5.70;;;2.20;;
72354;SDS011;60314;55.040;73.076;2022-07-23T15:03:42;5.07;;;1.92;;
72354;SDS011;60314;55.040;73.076;2022-07-23T15:06:18;4.65;;;2.10;;
72354;SDS011;60314;55.040;73.076;2022-07-23T15:08:45;6.72;;;1.92;;
72354;SDS011;60314;55.040;73.076;2022-07-23T15:11:11;7.60;;;2.53;;
72354;SDS011;60314;55.040;73.076;2022-07-23T15:13:49;3.58;;;2.00;;
72354;SDS011;60314;55.040;73.076;2022-07-23T15:16:25;5.38;;;2.63;;
72354;SDS011;60314;55.040;73.076;2022-07-23T15:18:56;5.28;;;2.20;;
72354;SDS011;60314;55.040;73.076;2022-07-23T15:21:40;4.72;;;2.22;;
72354;SDS011;60314;55.040;73.076;2022-07-23T15:24:07;4.25;;;2.03;;
72354;SDS011;60314;55.040;73.076;2022-07-23T15:26:34;8.30;;;2.65;;
72354;SDS011;60314;55.040;73.076;2022-07-23T15:29:01;4.82;;;2.25;;
72354;SDS011;60314;55.040;73.076;2022-07-23T15:31:29;8.40;;;2.55;;
72354;SDS011;60314;55.040;73.076;2022-07-23T15:33:56;5.63;;;2.38;;
72354;SDS011;60314;55.040;73.076;2022-07-23T15:36:28;5.55;;;2.70;;
72354;SDS011;60314;55.040;73.076;2022-07-23T15:38:54;5.05;;;2.35;;
72354;SDS011;60314;55.040;73.076;2022-07-23T15:41:21;5.82;;;2.47;;
72354;SDS011;60314;55.040;73.076;2022-07-23T15:43:48;8.95;;;2.65;;
72354;SDS011;60314;55.040;73.076;2022-07-23T15:46:14;6.32;;;2.60;;
72354;SDS011;60314;55.040;73.076;2022-07-23T15:48:44;7.10;;;2.47;;
72354;SDS011;60314;55.040;73.076;2022-07-23T15:51:11;8.23;;;3.47;;
72354;SDS011;60314;55.040;73.076;2022-07-23T15:53:56;5.55;;;2.45;;